Sunday, May 27, 2018, 5:49 PM GMT
Back to Local

CWTG, Pointe-Des-Monts , Que.

Location: , , Canada Lat: 49.317
Local Time: 5:49 PM GMT (17:49 GMT) Lon: -67.383
Time Zone: GMT Elev: 16 ft

Show me the last for .
Show Coded

Time T Td Feel RH Dir Speed Gust Alt SLP Vis Weather Sky Remarks
2018-05-27 17:00 48 41 45 76 80° 8 - - 30.24 0 None
2018-05-27 16:00 49 41 45 73 60° 9 - - 30.25 0 None
2018-05-27 14:00 46 37 41 69 60° 10 - - 30.28 0 None
2018-05-27 13:00 46 38 42 74 70° 7 - - 30.29 0 None
2018-05-27 12:00 45 37 43 73 90° 3 - - 30.29 0 None
2018-05-27 11:00 45 34 41 66 120° 6 - - 30.28 0 None
2018-05-27 10:00 45 30 42 55 360° 6 - - 30.26 0 None
2018-05-27 09:00 41 29 37 60 350° 7 - - 30.25 0 None
2018-05-27 08:00 41 29 37 61 350° 6 - - 30.23 0 None
2018-05-27 07:00 41 29 36 62 350° 7 - - 30.22 0 None
2018-05-27 06:00 39 30 - 69 - Calm - - 30.21 0 None
2018-05-27 05:00 39 29 35 67 40° 5 - - 30.19 0 None
2018-05-27 04:00 42 29 39 59 20° 5 - - 30.17 0 None
2018-05-27 03:00 45 31 41 56 10° 7 - - 30.15 0 None
2018-05-27 02:00 46 31 42 56 20° 7 - - 30.13 0 None
2018-05-27 01:00 49 30 47 48 30° 6 - - 30.11 0 None
2018-05-27 00:00 45 38 44 75 260° 3 - - 30.08 0 None
2018-05-26 23:00 50 37 49 60 270° 3 - - 30.03 0 None
2018-05-26 22:00 49 40 47 70 260° 6 - - 30.01 0 None
2018-05-26 21:00 48 39 46 69 250° 5 - - 29.98 0 None
2018-05-26 20:00 47 40 44 75 240° 7 - - 29.96 0 None
2018-05-26 19:00 49 42 47 77 220° 5 - - 29.93 0 None
2018-05-26 18:00 45 40 40 81 200° 10 - - 29.90 0 Peak wind: 19 mph (17 kts) from 200° at 11 min

Support USWX by starting your Amazon purchase here.